sensor_id;sensor_type;location;lat;lon;timestamp;temperature;humidity
13229;DHT22;6680;53.220;10.402;2023-07-24T00:02:21;17.60;99.90
13229;DHT22;6680;53.220;10.402;2023-07-24T00:04:49;17.60;99.90
13229;DHT22;6680;53.220;10.402;2023-07-24T00:07:16;17.50;99.90
13229;DHT22;6680;53.220;10.402;2023-07-24T00:09:43;17.50;99.90
13229;DHT22;6680;53.220;10.402;2023-07-24T00:12:09;17.50;99.90
13229;DHT22;6680;53.220;10.402;2023-07-24T00:14:36;17.50;99.90
13229;DHT22;6680;53.220;10.402;2023-07-24T00:17:03;17.50;99.90
13229;DHT22;6680;53.220;10.402;2023-07-24T00:19:30;17.60;99.90
13229;DHT22;6680;53.220;10.402;2023-07-24T00:21:58;17.60;99.90
13229;DHT22;6680;53.220;10.402;2023-07-24T00:24:24;17.60;99.90
13229;DHT22;6680;53.220;10.402;2023-07-24T00:26:51;17.70;99.90
13229;DHT22;6680;53.220;10.402;2023-07-24T00:29:18;17.80;99.90
13229;DHT22;6680;53.220;10.402;2023-07-24T00:31:44;17.80;99.90
13229;DHT22;6680;53.220;10.402;2023-07-24T00:34:11;17.90;99.90
13229;DHT22;6680;53.220;10.402;2023-07-24T00:36:38;17.90;99.90
13229;DHT22;6680;53.220;10.402;2023-07-24T00:39:06;17.90;99.90
13229;DHT22;6680;53.220;10.402;2023-07-24T00:41:33;18.00;99.90
13229;DHT22;6680;53.220;10.402;2023-07-24T00:43:59;18.00;99.90
13229;DHT22;6680;53.220;10.402;2023-07-24T00:46:27;18.00;99.90
13229;DHT22;6680;53.220;10.402;2023-07-24T00:48:58;18.00;99.90
13229;DHT22;6680;53.220;10.402;2023-07-24T00:51:26;18.10;99.90
13229;DHT22;6680;53.220;10.402;2023-07-24T00:53:54;18.10;99.90
13229;DHT22;6680;53.220;10.402;2023-07-24T00:56:22;18.10;99.90
13229;DHT22;6680;53.220;10.402;2023-07-24T00:58:49;18.10;99.90
13229;DHT22;6680;53.220;10.402;2023-07-24T01:01:17;18.10;99.90
13229;DHT22;6680;53.220;10.402;2023-07-24T01:03:44;18.20;99.90
13229;DHT22;6680;53.220;10.402;2023-07-24T01:06:10;18.10;99.90
13229;DHT22;6680;53.220;10.402;2023-07-24T01:08:37;18.10;99.90
13229;DHT22;6680;53.220;10.402;2023-07-24T01:11:12;18.10;99.90
13229;DHT22;6680;53.220;10.402;2023-07-24T01:13:44;18.20;99.90
13229;DHT22;6680;53.220;10.402;2023-07-24T01:16:14;18.20;99.90
13229;DHT22;6680;53.220;10.402;2023-07-24T01:18:45;18.20;99.90
13229;DHT22;6680;53.220;10.402;2023-07-24T01:21:12;18.20;99.90
13229;DHT22;6680;53.220;10.402;2023-07-24T01:23:48;18.20;99.90
13229;DHT22;6680;53.220;10.402;2023-07-24T01:26:23;18.20;99.90
13229;DHT22;6680;53.220;10.402;2023-07-24T01:28:49;18.10;99.90
13229;DHT22;6680;53.220;10.402;2023-07-24T01:31:16;18.10;99.90
13229;DHT22;6680;53.220;10.402;2023-07-24T01:33:43;18.10;99.90
13229;DHT22;6680;53.220;10.402;2023-07-24T01:36:11;18.20;99.90
13229;DHT22;6680;53.220;10.402;2023-07-24T01:38:40;18.10;99.90
13229;DHT22;6680;53.220;10.402;2023-07-24T01:41:07;18.10;99.90
13229;DHT22;6680;53.220;10.402;2023-07-24T01:43:36;18.10;99.90
13229;DHT22;6680;53.220;10.402;2023-07-24T01:46:02;18.20;99.90
13229;DHT22;6680;53.220;10.402;2023-07-24T01:48:29;18.20;99.90
13229;DHT22;6680;53.220;10.402;2023-07-24T01:50:56;18.20;99.90
13229;DHT22;6680;53.220;10.402;2023-07-24T01:53:23;18.30;99.90
13229;DHT22;6680;53.220;10.402;2023-07-24T01:55:49;18.30;99.90
13229;DHT22;6680;53.220;10.402;2023-07-24T01:58:16;18.20;99.90
13229;DHT22;6680;53.220;10.402;2023-07-24T02:00:44;18.20;99.90
13229;DHT22;6680;53.220;10.402;2023-07-24T02:03:11;18.30;99.90
13229;DHT22;6680;53.220;10.402;2023-07-24T02:05:37;18.20;99.90
13229;DHT22;6680;53.220;10.402;2023-07-24T02:08:04;18.30;99.90
13229;DHT22;6680;53.220;10.402;2023-07-24T02:10:32;18.30;99.90
13229;DHT22;6680;53.220;10.402;2023-07-24T02:12:59;18.10;99.90
13229;DHT22;6680;53.220;10.402;2023-07-24T02:15:25;18.50;99.90
13229;DHT22;6680;53.220;10.402;2023-07-24T02:17:54;18.20;99.90
13229;DHT22;6680;53.220;10.402;2023-07-24T02:20:20;18.20;99.90
13229;DHT22;6680;53.220;10.402;2023-07-24T02:22:47;18.20;99.90
13229;DHT22;6680;53.220;10.402;2023-07-24T02:25:14;18.10;99.90
13229;DHT22;6680;53.220;10.402;2023-07-24T02:27:41;18.20;99.90
13229;DHT22;6680;53.220;10.402;2023-07-24T02:30:08;18.20;99.90
13229;DHT22;6680;53.220;10.402;2023-07-24T02:32:35;18.10;99.90
13229;DHT22;6680;53.220;10.402;2023-07-24T02:35:04;18.40;99.90
13229;DHT22;6680;53.220;10.402;2023-07-24T02:37:31;18.10;99.90
13229;DHT22;6680;53.220;10.402;2023-07-24T02:39:58;18.20;99.90
13229;DHT22;6680;53.220;10.402;2023-07-24T02:42:24;18.50;99.90
13229;DHT22;6680;53.220;10.402;2023-07-24T02:44:51;18.10;99.90
13229;DHT22;6680;53.220;10.402;2023-07-24T02:47:18;18.10;99.90
13229;DHT22;6680;53.220;10.402;2023-07-24T02:49:45;18.10;99.90
13229;DHT22;6680;53.220;10.402;2023-07-24T02:52:13;18.10;99.90
13229;DHT22;6680;53.220;10.402;2023-07-24T02:54:41;18.10;99.90
13229;DHT22;6680;53.220;10.402;2023-07-24T02:57:07;18.10;99.90
13229;DHT22;6680;53.220;10.402;2023-07-24T02:59:34;18.10;99.90
13229;DHT22;6680;53.220;10.402;2023-07-24T03:02:01;18.10;99.90
13229;DHT22;6680;53.220;10.402;2023-07-24T03:04:27;18.00;99.90
13229;DHT22;6680;53.220;10.402;2023-07-24T03:06:54;17.90;99.90
13229;DHT22;6680;53.220;10.402;2023-07-24T03:09:22;17.90;99.90
13229;DHT22;6680;53.220;10.402;2023-07-24T03:11:49;17.90;99.90
13229;DHT22;6680;53.220;10.402;2023-07-24T03:14:16;17.80;99.90
13229;DHT22;6680;53.220;10.402;2023-07-24T03:16:42;17.80;99.90
13229;DHT22;6680;53.220;10.402;2023-07-24T03:19:09;17.80;99.90
13229;DHT22;6680;53.220;10.402;2023-07-24T03:21:36;17.80;99.90
13229;DHT22;6680;53.220;10.402;2023-07-24T03:24:03;17.80;99.90
13229;DHT22;6680;53.220;10.402;2023-07-24T03:26:32;17.80;99.90
13229;DHT22;6680;53.220;10.402;2023-07-24T03:28:59;17.80;99.90
13229;DHT22;6680;53.220;10.402;2023-07-24T03:31:26;17.80;99.90
13229;DHT22;6680;53.220;10.402;2023-07-24T03:33:52;17.80;99.90
13229;DHT22;6680;53.220;10.402;2023-07-24T03:36:19;17.90;99.90
13229;DHT22;6680;53.220;10.402;2023-07-24T03:41:13;18.00;99.90
13229;DHT22;6680;53.220;10.402;2023-07-24T03:43:41;18.00;99.90
13229;DHT22;6680;53.220;10.402;2023-07-24T03:46:07;18.00;99.90
13229;DHT22;6680;53.220;10.402;2023-07-24T03:48:34;18.00;99.90
13229;DHT22;6680;53.220;10.402;2023-07-24T03:51:02;18.00;99.90
13229;DHT22;6680;53.220;10.402;2023-07-24T03:53:29;18.00;99.90
13229;DHT22;6680;53.220;10.402;2023-07-24T03:55:55;18.00;99.90
13229;DHT22;6680;53.220;10.402;2023-07-24T03:58:22;18.10;99.90
13229;DHT22;6680;53.220;10.402;2023-07-24T04:00:50;18.10;99.90
13229;DHT22;6680;53.220;10.402;2023-07-24T04:03:17;18.20;99.90
13229;DHT22;6680;53.220;10.402;2023-07-24T04:05:44;18.20;99.90
13229;DHT22;6680;53.220;10.402;2023-07-24T04:08:10;18.30;99.90
13229;DHT22;6680;53.220;10.402;2023-07-24T04:10:37;18.30;99.90
13229;DHT22;6680;53.220;10.402;2023-07-24T04:13:04;18.30;99.90
13229;DHT22;6680;53.220;10.402;2023-07-24T04:15:31;18.40;99.90
13229;DHT22;6680;53.220;10.402;2023-07-24T04:17:59;18.40;99.90
13229;DHT22;6680;53.220;10.402;2023-07-24T04:20:25;18.40;99.90
13229;DHT22;6680;53.220;10.402;2023-07-24T04:25:19;18.80;99.90
13229;DHT22;6680;53.220;10.402;2023-07-24T04:27:46;18.70;99.90
13229;DHT22;6680;53.220;10.402;2023-07-24T04:30:12;18.80;99.90
13229;DHT22;6680;53.220;10.402;2023-07-24T04:32:39;18.80;99.90
13229;DHT22;6680;53.220;10.402;2023-07-24T04:35:08;18.90;99.90
13229;DHT22;6680;53.220;10.402;2023-07-24T04:37:34;18.90;99.90
13229;DHT22;6680;53.220;10.402;2023-07-24T04:40:01;18.90;99.90
13229;DHT22;6680;53.220;10.402;2023-07-24T04:42:28;19.00;99.90
13229;DHT22;6680;53.220;10.402;2023-07-24T04:44:55;19.00;99.90
13229;DHT22;6680;53.220;10.402;2023-07-24T04:47:22;18.80;99.90
13229;DHT22;6680;53.220;10.402;2023-07-24T04:49:48;18.90;99.90
13229;DHT22;6680;53.220;10.402;2023-07-24T04:52:16;18.90;99.90
13229;DHT22;6680;53.220;10.402;2023-07-24T04:54:43;18.90;99.90
13229;DHT22;6680;53.220;10.402;2023-07-24T04:57:10;18.90;99.90
13229;DHT22;6680;53.220;10.402;2023-07-24T04:59:37;19.00;99.90
13229;DHT22;6680;53.220;10.402;2023-07-24T05:02:04;19.20;99.90
13229;DHT22;6680;53.220;10.402;2023-07-24T05:04:30;19.20;99.90
13229;DHT22;6680;53.220;10.402;2023-07-24T05:06:57;19.30;99.90
13229;DHT22;6680;53.220;10.402;2023-07-24T05:09:25;19.40;99.90
13229;DHT22;6680;53.220;10.402;2023-07-24T05:11:52;19.40;99.90
13229;DHT22;6680;53.220;10.402;2023-07-24T05:14:18;19.40;99.90
13229;DHT22;6680;53.220;10.402;2023-07-24T05:16:45;19.40;99.90
13229;DHT22;6680;53.220;10.402;2023-07-24T05:19:12;19.40;99.90
13229;DHT22;6680;53.220;10.402;2023-07-24T05:21:38;19.40;99.90
13229;DHT22;6680;53.220;10.402;2023-07-24T05:24:05;19.60;99.90
13229;DHT22;6680;53.220;10.402;2023-07-24T05:26:33;19.80;99.90
13229;DHT22;6680;53.220;10.402;2023-07-24T05:29:00;19.90;99.90
13229;DHT22;6680;53.220;10.402;2023-07-24T05:31:27;19.90;99.90
13229;DHT22;6680;53.220;10.402;2023-07-24T05:33:53;19.90;99.90
13229;DHT22;6680;53.220;10.402;2023-07-24T05:36:20;20.20;99.90
13229;DHT22;6680;53.220;10.402;2023-07-24T05:38:46;20.50;99.90
13229;DHT22;6680;53.220;10.402;2023-07-24T05:41:13;20.70;99.90
13229;DHT22;6680;53.220;10.402;2023-07-24T05:43:41;20.90;99.90
13229;DHT22;6680;53.220;10.402;2023-07-24T05:46:08;21.60;99.90
13229;DHT22;6680;53.220;10.402;2023-07-24T05:48:34;22.60;99.90
13229;DHT22;6680;53.220;10.402;2023-07-24T05:51:01;23.30;99.90
13229;DHT22;6680;53.220;10.402;2023-07-24T05:53:28;23.80;99.90
13229;DHT22;6680;53.220;10.402;2023-07-24T05:55:58;24.30;99.90
13229;DHT22;6680;53.220;10.402;2023-07-24T05:58:25;25.00;99.90
13229;DHT22;6680;53.220;10.402;2023-07-24T06:00:53;25.50;99.90
13229;DHT22;6680;53.220;10.402;2023-07-24T06:03:20;25.60;99.90
13229;DHT22;6680;53.220;10.402;2023-07-24T06:05:50;25.50;99.90
13229;DHT22;6680;53.220;10.402;2023-07-24T06:08:17;25.10;99.90
13229;DHT22;6680;53.220;10.402;2023-07-24T06:10:46;24.70;99.90
13229;DHT22;6680;53.220;10.402;2023-07-24T06:13:13;24.20;99.90
13229;DHT22;6680;53.220;10.402;2023-07-24T06:15:39;23.70;99.90
13229;DHT22;6680;53.220;10.402;2023-07-24T06:18:08;23.40;99.90
13229;DHT22;6680;53.220;10.402;2023-07-24T06:20:34;23.20;99.90
13229;DHT22;6680;53.220;10.402;2023-07-24T06:23:01;23.00;99.90
13229;DHT22;6680;53.220;10.402;2023-07-24T06:25:29;22.70;99.90
13229;DHT22;6680;53.220;10.402;2023-07-24T06:27:56;22.50;99.90
13229;DHT22;6680;53.220;10.402;2023-07-24T06:30:22;22.30;99.90
13229;DHT22;6680;53.220;10.402;2023-07-24T06:32:49;22.00;99.90
13229;DHT22;6680;53.220;10.402;2023-07-24T06:35:17;21.80;99.90
13229;DHT22;6680;53.220;10.402;2023-07-24T06:37:44;21.60;99.90
13229;DHT22;6680;53.220;10.402;2023-07-24T06:40:11;21.40;99.90
13229;DHT22;6680;53.220;10.402;2023-07-24T06:42:38;21.30;99.90
13229;DHT22;6680;53.220;10.402;2023-07-24T06:45:06;21.20;99.90
13229;DHT22;6680;53.220;10.402;2023-07-24T06:47:33;21.20;99.90
13229;DHT22;6680;53.220;10.402;2023-07-24T06:49:59;21.10;99.90
13229;DHT22;6680;53.220;10.402;2023-07-24T06:52:28;21.10;99.90
13229;DHT22;6680;53.220;10.402;2023-07-24T06:54:55;21.00;99.90
13229;DHT22;6680;53.220;10.402;2023-07-24T06:57:23;20.90;99.90
13229;DHT22;6680;53.220;10.402;2023-07-24T06:59:50;20.80;99.90
13229;DHT22;6680;53.220;10.402;2023-07-24T07:04:44;20.90;99.90
13229;DHT22;6680;53.220;10.402;2023-07-24T07:07:11;21.00;99.90
13229;DHT22;6680;53.220;10.402;2023-07-24T07:09:38;21.20;99.90
13229;DHT22;6680;53.220;10.402;2023-07-24T07:12:06;21.20;99.90
13229;DHT22;6680;53.220;10.402;2023-07-24T07:14:33;21.30;99.90
13229;DHT22;6680;53.220;10.402;2023-07-24T07:16:59;21.30;99.90
13229;DHT22;6680;53.220;10.402;2023-07-24T07:19:27;21.00;99.90
13229;DHT22;6680;53.220;10.402;2023-07-24T07:21:53;21.30;99.90
13229;DHT22;6680;53.220;10.402;2023-07-24T07:24:20;21.20;99.90
13229;DHT22;6680;53.220;10.402;2023-07-24T07:26:48;21.10;99.90
13229;DHT22;6680;53.220;10.402;2023-07-24T07:29:15;21.00;99.90
13229;DHT22;6680;53.220;10.402;2023-07-24T07:31:41;20.80;99.90
13229;DHT22;6680;53.220;10.402;2023-07-24T07:34:08;20.60;99.90
13229;DHT22;6680;53.220;10.402;2023-07-24T07:36:35;20.50;99.90
13229;DHT22;6680;53.220;10.402;2023-07-24T07:39:01;20.30;99.90
13229;DHT22;6680;53.220;10.402;2023-07-24T07:41:28;20.20;99.90
13229;DHT22;6680;53.220;10.402;2023-07-24T07:43:58;20.00;99.90
13229;DHT22;6680;53.220;10.402;2023-07-24T07:46:24;20.20;99.90
13229;DHT22;6680;53.220;10.402;2023-07-24T07:48:51;19.90;99.90
13229;DHT22;6680;53.220;10.402;2023-07-24T07:51:18;19.80;99.90
13229;DHT22;6680;53.220;10.402;2023-07-24T07:56:11;19.60;99.90
13229;DHT22;6680;53.220;10.402;2023-07-24T07:58:38;19.50;99.90
13229;DHT22;6680;53.220;10.402;2023-07-24T08:01:07;19.40;99.90
13229;DHT22;6680;53.220;10.402;2023-07-24T08:03:33;19.40;99.90
13229;DHT22;6680;53.220;10.402;2023-07-24T08:06:00;19.30;99.90
13229;DHT22;6680;53.220;10.402;2023-07-24T08:08:27;19.30;99.90
13229;DHT22;6680;53.220;10.402;2023-07-24T08:10:54;19.20;99.90
13229;DHT22;6680;53.220;10.402;2023-07-24T08:13:20;19.20;99.90
13229;DHT22;6680;53.220;10.402;2023-07-24T08:15:47;19.10;99.90
13229;DHT22;6680;53.220;10.402;2023-07-24T08:18:15;19.10;99.90
13229;DHT22;6680;53.220;10.402;2023-07-24T08:20:42;19.00;99.90
13229;DHT22;6680;53.220;10.402;2023-07-24T08:23:09;18.80;99.90
13229;DHT22;6680;53.220;10.402;2023-07-24T08:25:35;18.90;99.90
13229;DHT22;6680;53.220;10.402;2023-07-24T08:30:30;18.80;99.90
13229;DHT22;6680;53.220;10.402;2023-07-24T08:32:57;18.90;99.90
13229;DHT22;6680;53.220;10.402;2023-07-24T08:35:25;18.60;99.90
13229;DHT22;6680;53.220;10.402;2023-07-24T08:37:52;18.60;99.90
13229;DHT22;6680;53.220;10.402;2023-07-24T08:40:19;18.70;99.90
13229;DHT22;6680;53.220;10.402;2023-07-24T08:42:49;18.80;99.90
13229;DHT22;6680;53.220;10.402;2023-07-24T08:45:17;18.90;99.90
13229;DHT22;6680;53.220;10.402;2023-07-24T08:47:44;19.10;99.90
13229;DHT22;6680;53.220;10.402;2023-07-24T08:50:11;19.20;99.90
13229;DHT22;6680;53.220;10.402;2023-07-24T08:52:42;19.30;99.90
13229;DHT22;6680;53.220;10.402;2023-07-24T08:55:10;19.30;99.90
13229;DHT22;6680;53.220;10.402;2023-07-24T08:57:37;19.30;99.90
13229;DHT22;6680;53.220;10.402;2023-07-24T09:00:04;19.20;99.90
13229;DHT22;6680;53.220;10.402;2023-07-24T09:02:32;19.10;99.90
13229;DHT22;6680;53.220;10.402;2023-07-24T09:04:59;19.10;99.90
13229;DHT22;6680;53.220;10.402;2023-07-24T09:07:26;19.30;99.90
13229;DHT22;6680;53.220;10.402;2023-07-24T09:09:54;19.00;99.90
13229;DHT22;6680;53.220;10.402;2023-07-24T09:12:22;19.00;99.90
13229;DHT22;6680;53.220;10.402;2023-07-24T09:15:00;19.10;99.90
13229;DHT22;6680;53.220;10.402;2023-07-24T09:17:28;19.10;99.90
13229;DHT22;6680;53.220;10.402;2023-07-24T09:19:56;19.20;99.90
13229;DHT22;6680;53.220;10.402;2023-07-24T09:22:24;19.40;99.90
13229;DHT22;6680;53.220;10.402;2023-07-24T09:24:54;19.70;99.90
13229;DHT22;6680;53.220;10.402;2023-07-24T09:27:25;20.10;99.90
13229;DHT22;6680;53.220;10.402;2023-07-24T09:29:53;20.40;99.90
13229;DHT22;6680;53.220;10.402;2023-07-24T09:32:20;20.70;99.90
13229;DHT22;6680;53.220;10.402;2023-07-24T09:34:48;20.90;99.90
13229;DHT22;6680;53.220;10.402;2023-07-24T09:37:26;21.10;99.90
13229;DHT22;6680;53.220;10.402;2023-07-24T09:39:54;21.30;99.90
13229;DHT22;6680;53.220;10.402;2023-07-24T09:42:30;21.40;99.90
13229;DHT22;6680;53.220;10.402;2023-07-24T09:44:57;21.50;99.90
13229;DHT22;6680;53.220;10.402;2023-07-24T09:47:24;21.60;99.90
13229;DHT22;6680;53.220;10.402;2023-07-24T09:49:52;21.60;99.90
13229;DHT22;6680;53.220;10.402;2023-07-24T09:52:19;21.40;99.90
13229;DHT22;6680;53.220;10.402;2023-07-24T09:54:58;21.20;99.90
13229;DHT22;6680;53.220;10.402;2023-07-24T09:57:26;21.20;99.90
13229;DHT22;6680;53.220;10.402;2023-07-24T09:59:56;21.10;99.90
13229;DHT22;6680;53.220;10.402;2023-07-24T10:02:24;21.00;99.90
13229;DHT22;6680;53.220;10.402;2023-07-24T10:04:51;21.00;99.90
13229;DHT22;6680;53.220;10.402;2023-07-24T10:07:19;20.90;99.90
13229;DHT22;6680;53.220;10.402;2023-07-24T10:09:48;20.90;99.90
13229;DHT22;6680;53.220;10.402;2023-07-24T10:12:18;20.90;99.90
13229;DHT22;6680;53.220;10.402;2023-07-24T10:14:46;20.90;99.90
13229;DHT22;6680;53.220;10.402;2023-07-24T10:17:13;20.90;99.90
13229;DHT22;6680;53.220;10.402;2023-07-24T10:19:40;20.90;99.90
13229;DHT22;6680;53.220;10.402;2023-07-24T10:22:09;21.10;99.90
13229;DHT22;6680;53.220;10.402;2023-07-24T10:24:36;21.30;99.90
13229;DHT22;6680;53.220;10.402;2023-07-24T10:27:03;21.50;99.90
13229;DHT22;6680;53.220;10.402;2023-07-24T10:29:35;21.80;99.90
13229;DHT22;6680;53.220;10.402;2023-07-24T10:32:02;22.20;99.90
13229;DHT22;6680;53.220;10.402;2023-07-24T10:34:36;22.50;99.90
13229;DHT22;6680;53.220;10.402;2023-07-24T10:37:07;22.90;99.90
13229;DHT22;6680;53.220;10.402;2023-07-24T10:39:38;23.10;99.90
13229;DHT22;6680;53.220;10.402;2023-07-24T10:42:07;23.20;99.90
13229;DHT22;6680;53.220;10.402;2023-07-24T10:44:35;23.30;99.90
13229;DHT22;6680;53.220;10.402;2023-07-24T10:47:02;23.30;99.90
13229;DHT22;6680;53.220;10.402;2023-07-24T10:49:29;23.40;99.90
13229;DHT22;6680;53.220;10.402;2023-07-24T10:51:56;23.40;99.90
13229;DHT22;6680;53.220;10.402;2023-07-24T10:54:22;23.50;99.90
13229;DHT22;6680;53.220;10.402;2023-07-24T10:56:49;23.70;99.90
13229;DHT22;6680;53.220;10.402;2023-07-24T10:59:16;23.80;99.90
13229;DHT22;6680;53.220;10.402;2023-07-24T11:01:44;24.00;99.90
13229;DHT22;6680;53.220;10.402;2023-07-24T11:06:38;23.70;99.90
13229;DHT22;6680;53.220;10.402;2023-07-24T11:09:04;23.50;99.90
13229;DHT22;6680;53.220;10.402;2023-07-24T11:11:32;23.30;99.90
13229;DHT22;6680;53.220;10.402;2023-07-24T11:14:00;23.10;99.90
13229;DHT22;6680;53.220;10.402;2023-07-24T11:16:27;22.90;99.90
13229;DHT22;6680;53.220;10.402;2023-07-24T11:18:57;22.80;99.90
13229;DHT22;6680;53.220;10.402;2023-07-24T11:23:51;22.90;99.90
13229;DHT22;6680;53.220;10.402;2023-07-24T11:26:19;23.00;99.90
13229;DHT22;6680;53.220;10.402;2023-07-24T11:28:46;23.10;99.90
13229;DHT22;6680;53.220;10.402;2023-07-24T11:31:12;23.20;99.90
13229;DHT22;6680;53.220;10.402;2023-07-24T11:33:41;23.10;99.90
13229;DHT22;6680;53.220;10.402;2023-07-24T11:36:09;23.00;99.90
13229;DHT22;6680;53.220;10.402;2023-07-24T11:38:36;22.80;99.90
13229;DHT22;6680;53.220;10.402;2023-07-24T11:41:04;22.50;99.90
13229;DHT22;6680;53.220;10.402;2023-07-24T11:43:31;22.30;99.90
13229;DHT22;6680;53.220;10.402;2023-07-24T11:45:58;22.20;99.90
13229;DHT22;6680;53.220;10.402;2023-07-24T11:48:25;22.20;99.90
13229;DHT22;6680;53.220;10.402;2023-07-24T11:50:53;22.30;99.90
13229;DHT22;6680;53.220;10.402;2023-07-24T11:53:23;22.30;99.90
13229;DHT22;6680;53.220;10.402;2023-07-24T11:55:51;22.30;99.90
13229;DHT22;6680;53.220;10.402;2023-07-24T11:58:18;22.20;99.90
13229;DHT22;6680;53.220;10.402;2023-07-24T12:00:46;22.10;99.90
13229;DHT22;6680;53.220;10.402;2023-07-24T12:03:13;21.90;99.90
13229;DHT22;6680;53.220;10.402;2023-07-24T12:05:41;21.80;99.90
13229;DHT22;6680;53.220;10.402;2023-07-24T12:08:08;21.70;99.90
13229;DHT22;6680;53.220;10.402;2023-07-24T12:10:38;21.70;99.90
13229;DHT22;6680;53.220;10.402;2023-07-24T12:13:05;21.90;99.90
13229;DHT22;6680;53.220;10.402;2023-07-24T12:15:33;21.90;99.90
13229;DHT22;6680;53.220;10.402;2023-07-24T12:18:00;22.00;99.90
13229;DHT22;6680;53.220;10.402;2023-07-24T12:20:28;22.10;99.90
13229;DHT22;6680;53.220;10.402;2023-07-24T12:25:22;22.50;99.90
13229;DHT22;6680;53.220;10.402;2023-07-24T12:27:50;22.60;99.90
13229;DHT22;6680;53.220;10.402;2023-07-24T12:30:17;22.80;99.90
13229;DHT22;6680;53.220;10.402;2023-07-24T12:32:44;22.90;99.90
13229;DHT22;6680;53.220;10.402;2023-07-24T12:35:11;23.00;99.90
13229;DHT22;6680;53.220;10.402;2023-07-24T12:37:38;23.00;99.90
13229;DHT22;6680;53.220;10.402;2023-07-24T12:40:06;23.00;99.90
13229;DHT22;6680;53.220;10.402;2023-07-24T12:42:33;23.00;99.90
13229;DHT22;6680;53.220;10.402;2023-07-24T12:45:01;23.00;99.90
13229;DHT22;6680;53.220;10.402;2023-07-24T12:47:29;23.00;99.90
13229;DHT22;6680;53.220;10.402;2023-07-24T12:49:56;23.20;99.90
13229;DHT22;6680;53.220;10.402;2023-07-24T12:52:24;23.40;99.90
13229;DHT22;6680;53.220;10.402;2023-07-24T12:54:51;23.60;99.90
13229;DHT22;6680;53.220;10.402;2023-07-24T12:57:18;23.80;99.90
13229;DHT22;6680;53.220;10.402;2023-07-24T12:59:45;23.80;99.90
13229;DHT22;6680;53.220;10.402;2023-07-24T13:02:13;23.80;99.90
13229;DHT22;6680;53.220;10.402;2023-07-24T13:04:40;23.80;99.90
13229;DHT22;6680;53.220;10.402;2023-07-24T13:07:06;23.70;99.90
13229;DHT22;6680;53.220;10.402;2023-07-24T13:09:33;23.60;99.90
13229;DHT22;6680;53.220;10.402;2023-07-24T13:12:00;23.70;99.90
13229;DHT22;6680;53.220;10.402;2023-07-24T13:14:26;23.70;99.90
13229;DHT22;6680;53.220;10.402;2023-07-24T13:16:53;23.60;99.90
13229;DHT22;6680;53.220;10.402;2023-07-24T13:19:21;23.60;99.90
13229;DHT22;6680;53.220;10.402;2023-07-24T13:21:48;23.70;99.90
13229;DHT22;6680;53.220;10.402;2023-07-24T13:24:15;23.80;99.90
13229;DHT22;6680;53.220;10.402;2023-07-24T13:26:41;23.80;99.90
13229;DHT22;6680;53.220;10.402;2023-07-24T13:29:08;24.00;99.90
13229;DHT22;6680;53.220;10.402;2023-07-24T13:31:35;24.00;99.90
13229;DHT22;6680;53.220;10.402;2023-07-24T13:34:02;24.10;99.90
13229;DHT22;6680;53.220;10.402;2023-07-24T13:36:30;24.00;99.90
13229;DHT22;6680;53.220;10.402;2023-07-24T13:38:57;23.90;99.90
13229;DHT22;6680;53.220;10.402;2023-07-24T13:41:23;24.00;99.90
13229;DHT22;6680;53.220;10.402;2023-07-24T13:43:50;24.10;99.90
13229;DHT22;6680;53.220;10.402;2023-07-24T13:46:17;24.20;99.90
13229;DHT22;6680;53.220;10.402;2023-07-24T13:48:44;24.20;99.90
13229;DHT22;6680;53.220;10.402;2023-07-24T13:51:10;24.20;99.90
13229;DHT22;6680;53.220;10.402;2023-07-24T13:53:38;24.30;99.90
13229;DHT22;6680;53.220;10.402;2023-07-24T13:56:05;24.30;99.90
13229;DHT22;6680;53.220;10.402;2023-07-24T13:58:32;24.40;99.90
13229;DHT22;6680;53.220;10.402;2023-07-24T14:00:59;24.50;99.90
13229;DHT22;6680;53.220;10.402;2023-07-24T14:03:26;24.50;99.90
13229;DHT22;6680;53.220;10.402;2023-07-24T14:05:54;24.50;99.90
13229;DHT22;6680;53.220;10.402;2023-07-24T14:08:21;24.60;99.90
13229;DHT22;6680;53.220;10.402;2023-07-24T14:10:49;24.70;99.90
13229;DHT22;6680;53.220;10.402;2023-07-24T14:13:16;24.80;99.90
13229;DHT22;6680;53.220;10.402;2023-07-24T14:15:43;24.90;99.90
13229;DHT22;6680;53.220;10.402;2023-07-24T14:18:10;24.70;99.90
13229;DHT22;6680;53.220;10.402;2023-07-24T14:20:36;24.60;99.90
13229;DHT22;6680;53.220;10.402;2023-07-24T14:25:33;24.50;99.90
13229;DHT22;6680;53.220;10.402;2023-07-24T14:28:01;24.40;99.90
13229;DHT22;6680;53.220;10.402;2023-07-24T14:30:28;24.30;99.90
13229;DHT22;6680;53.220;10.402;2023-07-24T14:32:55;24.10;99.90
13229;DHT22;6680;53.220;10.402;2023-07-24T14:40:15;24.10;99.90
13229;DHT22;6680;53.220;10.402;2023-07-24T14:42:42;24.10;99.90
13229;DHT22;6680;53.220;10.402;2023-07-24T14:45:10;24.00;99.90
13229;DHT22;6680;53.220;10.402;2023-07-24T14:47:37;24.00;99.90
13229;DHT22;6680;53.220;10.402;2023-07-24T14:50:05;23.90;99.90
13229;DHT22;6680;53.220;10.402;2023-07-24T14:52:31;23.80;99.90
13229;DHT22;6680;53.220;10.402;2023-07-24T14:54:58;23.70;99.90
13229;DHT22;6680;53.220;10.402;2023-07-24T14:57:25;23.50;99.90
13229;DHT22;6680;53.220;10.402;2023-07-24T15:02:20;23.60;99.90
13229;DHT22;6680;53.220;10.402;2023-07-24T15:04:47;23.80;99.90
13229;DHT22;6680;53.220;10.402;2023-07-24T15:09:42;23.80;99.90
13229;DHT22;6680;53.220;10.402;2023-07-24T15:12:08;23.90;99.90
13229;DHT22;6680;53.220;10.402;2023-07-24T15:14:35;24.00;99.90
13229;DHT22;6680;53.220;10.402;2023-07-24T15:17:02;24.10;99.90
13229;DHT22;6680;53.220;10.402;2023-07-24T15:19:30;24.10;99.90
13229;DHT22;6680;53.220;10.402;2023-07-24T15:21:56;24.10;99.90
13229;DHT22;6680;53.220;10.402;2023-07-24T15:24:23;24.10;99.90
13229;DHT22;6680;53.220;10.402;2023-07-24T15:26:50;24.20;99.90
13229;DHT22;6680;53.220;10.402;2023-07-24T15:29:16;24.20;99.90
13229;DHT22;6680;53.220;10.402;2023-07-24T15:34:11;24.20;99.90
13229;DHT22;6680;53.220;10.402;2023-07-24T15:36:39;24.20;99.90
13229;DHT22;6680;53.220;10.402;2023-07-24T15:39:05;24.10;99.90
13229;DHT22;6680;53.220;10.402;2023-07-24T15:41:32;24.00;99.90
13229;DHT22;6680;53.220;10.402;2023-07-24T15:43:59;23.80;99.90
13229;DHT22;6680;53.220;10.402;2023-07-24T15:46:26;23.70;99.90
13229;DHT22;6680;53.220;10.402;2023-07-24T15:48:55;23.60;99.90
13229;DHT22;6680;53.220;10.402;2023-07-24T15:51:22;23.50;99.90
13229;DHT22;6680;53.220;10.402;2023-07-24T15:53:50;23.30;99.90
13229;DHT22;6680;53.220;10.402;2023-07-24T15:56:17;23.30;99.90
13229;DHT22;6680;53.220;10.402;2023-07-24T15:58:43;23.30;99.90
13229;DHT22;6680;53.220;10.402;2023-07-24T16:01:10;23.40;99.90
13229;DHT22;6680;53.220;10.402;2023-07-24T16:03:37;23.50;99.90
13229;DHT22;6680;53.220;10.402;2023-07-24T16:06:04;23.60;99.90